createdAt,value
2023-04-12T00:00:09.485Z,1.6
2023-04-12T00:03:10.387Z,1.6
2023-04-12T00:06:09.590Z,1.7
2023-04-12T00:09:09.448Z,1.7
2023-04-12T00:12:09.514Z,1.8
2023-04-12T00:15:12.280Z,1.8
2023-04-12T00:18:09.823Z,1.9
2023-04-12T00:21:09.439Z,0
2023-04-12T00:24:09.462Z,0.1
2023-04-12T00:27:09.472Z,0.1
2023-04-12T00:30:09.463Z,0.1
2023-04-12T00:33:09.912Z,0.1
2023-04-12T00:36:09.669Z,0
2023-04-12T00:39:09.562Z,1.9
2023-04-12T00:42:09.533Z,1.7
2023-04-12T00:45:09.545Z,1.6
2023-04-12T00:48:09.830Z,1.7
2023-04-12T00:51:09.464Z,1.7
2023-04-12T00:54:09.487Z,1.8
2023-04-12T00:57:09.505Z,1.9
2023-04-12T01:00:09.504Z,0.1
2023-04-12T01:03:10.509Z,0.2
2023-04-12T01:06:09.445Z,0.3
2023-04-12T01:09:09.415Z,0.4
2023-04-12T01:12:09.538Z,0.5
2023-04-12T01:15:09.455Z,0.5
2023-04-12T01:18:09.808Z,0.5
2023-04-12T01:21:09.633Z,0.6
2023-04-12T01:24:09.443Z,0.6
2023-04-12T01:27:09.521Z,0.7
2023-04-12T01:30:09.482Z,0.7
2023-04-12T01:33:09.860Z,0.8
2023-04-12T01:36:12.327Z,0.8
2023-04-12T01:39:09.496Z,0.8
2023-04-12T01:42:09.448Z,0.8
2023-04-12T01:45:09.415Z,0.8
2023-04-12T01:48:09.975Z,0.7
2023-04-12T01:51:09.418Z,0.6
2023-04-12T01:54:09.651Z,0.6
2023-04-12T01:57:09.540Z,0.6
2023-04-12T02:00:09.571Z,0.6
2023-04-12T02:03:10.532Z,0.6
2023-04-12T02:06:09.506Z,0.7
2023-04-12T02:09:09.459Z,0.7
2023-04-12T02:12:09.659Z,0.8
2023-04-12T02:15:09.800Z,0.9
2023-04-12T02:18:09.939Z,0.9
2023-04-12T02:21:09.740Z,0.9
2023-04-12T02:24:09.531Z,1
2023-04-12T02:27:09.471Z,1
2023-04-12T02:30:09.580Z,1
2023-04-12T02:33:09.714Z,1.1
2023-04-12T02:36:09.541Z,1.1
2023-04-12T02:39:09.469Z,1.1
2023-04-12T02:42:09.518Z,1.2
2023-04-12T02:45:09.462Z,1.2
2023-04-12T02:48:09.988Z,1.3
2023-04-12T02:51:09.705Z,1.3
2023-04-12T02:54:09.463Z,1.3
2023-04-12T02:57:09.436Z,1.3
2023-04-12T03:00:09.494Z,1.3
2023-04-12T03:03:10.466Z,1.3
2023-04-12T03:06:09.515Z,1.4
2023-04-12T03:09:09.520Z,1.4
2023-04-12T03:12:09.413Z,1.4
2023-04-12T03:15:09.635Z,1.4
2023-04-12T03:18:09.786Z,1.5
2023-04-12T03:21:09.457Z,1.5
2023-04-12T03:24:09.436Z,1.5
2023-04-12T03:27:09.448Z,1.6
2023-04-12T03:30:09.612Z,1.6
2023-04-12T03:33:09.986Z,1.6
2023-04-12T03:36:09.712Z,1.6
2023-04-12T03:39:09.429Z,1.6
2023-04-12T03:42:21.842Z,1.6
2023-04-12T03:45:09.516Z,1.6
2023-04-12T03:48:09.705Z,1.7
2023-04-12T03:51:09.460Z,1.8
2023-04-12T03:54:09.472Z,1.8
2023-04-12T03:57:09.461Z,1.8
2023-04-12T04:00:09.787Z,1.8
2023-04-12T04:03:10.347Z,1.9
2023-04-12T04:06:09.465Z,1.9
2023-04-12T04:09:09.460Z,1.9
2023-04-12T04:12:09.451Z,1.9
2023-04-12T04:15:09.449Z,1.9
2023-04-12T04:18:09.806Z,1.9
2023-04-12T04:21:09.492Z,1.9
2023-04-12T04:24:09.427Z,1.9
2023-04-12T04:27:09.412Z,2
2023-04-12T04:30:09.573Z,2
2023-04-12T04:33:09.768Z,2.1
2023-04-12T04:36:09.748Z,2.1
2023-04-12T04:39:09.522Z,2.1
2023-04-12T04:42:09.467Z,2.2
2023-04-12T04:45:09.773Z,2.2
2023-04-12T04:48:09.814Z,2.3
2023-04-12T04:51:09.712Z,2.5
2023-04-12T04:54:09.574Z,2.6
2023-04-12T04:57:09.491Z,2.5
2023-04-12T05:00:09.645Z,2.5
2023-04-12T05:03:10.382Z,2.5
2023-04-12T05:06:09.568Z,2.5
2023-04-12T05:09:09.399Z,2.6
2023-04-12T05:12:09.556Z,2.6
2023-04-12T05:15:21.065Z,2.7
2023-04-12T05:18:09.764Z,2.7
2023-04-12T05:21:09.617Z,2.8
2023-04-12T05:24:09.589Z,3
2023-04-12T05:27:09.516Z,3.2
2023-04-12T05:30:09.759Z,3.5
2023-04-12T05:33:09.750Z,3.9
2023-04-12T05:36:09.888Z,4.6
2023-04-12T05:39:09.504Z,5.2
2023-04-12T05:42:09.520Z,6.3
2023-04-12T05:45:09.607Z,6.9
2023-04-12T05:48:09.882Z,7.7
2023-04-12T05:51:09.484Z,7.7
2023-04-12T05:54:09.561Z,7.8
2023-04-12T05:57:09.572Z,7.9
2023-04-12T06:00:09.687Z,8
2023-04-12T06:03:10.373Z,7.9
2023-04-12T06:06:09.534Z,7.4
2023-04-12T06:09:09.701Z,7.1
2023-04-12T06:12:09.530Z,6.7
2023-04-12T06:15:09.527Z,6.4
2023-04-12T06:18:10.071Z,6
2023-04-12T06:21:09.511Z,5.9
2023-04-12T06:24:09.538Z,5.7
2023-04-12T06:27:09.538Z,5.7
2023-04-12T06:30:09.569Z,5.9
2023-04-12T06:33:09.879Z,6
2023-04-12T06:36:09.908Z,6.1
2023-04-12T06:39:09.606Z,6.2
2023-04-12T06:42:09.589Z,6.3
2023-04-12T06:45:09.661Z,6.3
2023-04-12T06:48:09.824Z,6.2
2023-04-12T06:51:09.506Z,6.4
2023-04-12T06:54:09.577Z,6.6
2023-04-12T06:57:09.484Z,6.7
2023-04-12T07:00:09.819Z,7.2
2023-04-12T07:03:10.132Z,7.6
2023-04-12T07:06:32.264Z,8.1
2023-04-12T07:09:09.544Z,8.6
2023-04-12T07:12:09.776Z,8.6
2023-04-12T07:15:09.876Z,8.6
2023-04-12T07:18:09.949Z,8.6
2023-04-12T07:21:09.524Z,8.6
2023-04-12T07:24:09.466Z,8.7
2023-04-12T07:27:09.431Z,9
2023-04-12T07:30:09.601Z,9.4
2023-04-12T07:33:28.821Z,9.2
2023-04-12T07:36:09.891Z,9.4
2023-04-12T07:39:09.714Z,9.5
2023-04-12T07:42:09.534Z,9.3
2023-04-12T07:45:09.537Z,9.3
2023-04-12T07:48:10.016Z,9.3
2023-04-12T07:51:09.596Z,9.6
2023-04-12T07:54:09.552Z,9.9
2023-04-12T07:57:09.628Z,10.4
2023-04-12T08:00:09.557Z,10.6
2023-04-12T08:03:10.558Z,10.8
2023-04-12T08:06:09.932Z,10.8
2023-04-12T08:09:09.550Z,11.9
2023-04-12T08:12:09.487Z,12.6
2023-04-12T08:15:09.554Z,12.8
2023-04-12T08:18:09.855Z,12.8
2023-04-12T08:21:09.639Z,13.4
2023-04-12T08:24:09.513Z,13.5
2023-04-12T08:27:09.505Z,13.8
2023-04-12T08:30:09.662Z,14.1
2023-04-12T08:33:09.630Z,14.2
2023-04-12T08:36:09.923Z,14
2023-04-12T08:39:09.577Z,14
2023-04-12T08:42:09.493Z,13.8
2023-04-12T08:48:10.234Z,13.8
2023-04-12T08:51:09.848Z,14.1
2023-04-12T08:54:09.920Z,13.6
2023-04-12T08:57:10.068Z,13.2
2023-04-12T09:00:11.016Z,13.3
2023-04-12T09:03:11.820Z,13
2023-04-12T09:06:11.035Z,12.9
2023-04-12T09:09:12.760Z,12.7
2023-04-12T09:12:10.527Z,12.4
2023-04-12T09:15:10.341Z,12.1
2023-04-12T09:18:10.760Z,11.9
2023-04-12T09:21:10.360Z,11.6
2023-04-12T09:30:10.067Z,10.7
2023-04-12T09:33:10.222Z,10.4
2023-04-12T09:36:10.290Z,10.3
2023-04-12T09:39:10.211Z,10.1
2023-04-12T09:42:32.899Z,9.9
2023-04-12T09:45:09.805Z,9.8
2023-04-12T09:48:10.308Z,9.8
2023-04-12T09:51:09.935Z,9.6
2023-04-12T09:54:10.179Z,9.4
2023-04-12T09:57:09.798Z,9.3
2023-04-12T10:00:09.996Z,9.1
2023-04-12T10:03:11.335Z,9
2023-04-12T10:06:09.882Z,8.9
2023-04-12T10:09:09.973Z,8.9
2023-04-12T10:12:09.767Z,8.9
2023-04-12T10:15:09.917Z,8.9
2023-04-12T10:18:10.192Z,8.8
2023-04-12T10:21:09.857Z,8.7
2023-04-12T10:24:09.857Z,8.6
2023-04-12T10:27:12.147Z,8.5
2023-04-12T10:30:10.016Z,8.5
2023-04-12T10:33:10.596Z,8.4
2023-04-12T10:36:11.221Z,8.4
2023-04-12T10:39:09.936Z,8.2
2023-04-12T10:42:09.916Z,8.1
2023-04-12T10:45:10.672Z,8
2023-04-12T10:48:10.374Z,7.9
2023-04-12T10:51:10.214Z,7.9
2023-04-12T10:54:11.243Z,7.9
2023-04-12T10:57:10.516Z,7.9
2023-04-12T11:00:10.284Z,8
2023-04-12T11:03:11.513Z,8
2023-04-12T11:06:35.354Z,8.1
2023-04-12T11:09:10.102Z,7.9
2023-04-12T11:12:13.424Z,7.9
2023-04-12T11:15:10.189Z,8.1
2023-04-12T11:18:10.844Z,8.1
2023-04-12T11:21:10.185Z,8.1
2023-04-12T11:24:10.372Z,8.1
2023-04-12T11:27:10.013Z,8.1
2023-04-12T11:30:10.317Z,8.1
2023-04-12T11:33:10.497Z,8.1
2023-04-12T11:36:10.297Z,8.1
2023-04-12T11:39:10.545Z,8
2023-04-12T11:42:10.288Z,8
2023-04-12T11:45:25.404Z,8
2023-04-12T11:48:10.395Z,8
2023-04-12T11:51:20.492Z,8
2023-04-12T11:54:10.514Z,8
2023-04-12T11:57:15.032Z,7.9
2023-04-12T12:00:10.683Z,7.9
2023-04-12T12:03:19.039Z,7.8
2023-04-12T12:06:12.872Z,7.9
2023-04-12T12:09:10.940Z,7.9
2023-04-12T12:12:10.519Z,8
2023-04-12T12:15:10.130Z,8.1
2023-04-12T12:18:10.364Z,8.1
2023-04-12T12:21:10.656Z,8.1
2023-04-12T12:24:10.755Z,8.1
2023-04-12T12:27:11.051Z,8.1
2023-04-12T12:30:10.175Z,8.1
2023-04-12T12:33:10.662Z,8.1
2023-04-12T12:36:10.518Z,8.2
2023-04-12T12:39:10.395Z,8.3
2023-04-12T12:42:10.140Z,8.3
2023-04-12T12:45:10.565Z,8.4
2023-04-12T12:48:10.547Z,8.4
2023-04-12T12:51:10.015Z,8.4
2023-04-12T12:54:10.243Z,8.4
2023-04-12T12:57:14.074Z,8.4
2023-04-12T13:00:11.301Z,8.3
2023-04-12T13:03:12.694Z,8.4
2023-04-12T13:06:10.138Z,8.6
2023-04-12T13:09:10.799Z,8.7
2023-04-12T13:12:10.328Z,8.8
2023-04-12T13:15:32.621Z,8.9
2023-04-12T13:18:10.829Z,9
2023-04-12T13:21:12.878Z,8.9
2023-04-12T13:24:12.666Z,8.9
2023-04-12T13:27:11.209Z,8.8
2023-04-12T13:30:10.838Z,8.8
2023-04-12T13:33:10.344Z,8.8
2023-04-12T13:36:12.606Z,8.8
2023-04-12T13:39:10.393Z,8.7
2023-04-12T13:42:11.501Z,8.8
2023-04-12T13:45:09.834Z,8.8
2023-04-12T13:48:10.733Z,8.8
2023-04-12T13:51:10.452Z,8.9
2023-04-12T13:54:11.878Z,8.9
2023-04-12T13:57:10.387Z,8.9
2023-04-12T14:00:13.561Z,8.8
2023-04-12T14:03:12.587Z,8.8
2023-04-12T14:06:10.704Z,8.8
2023-04-12T14:09:10.460Z,8.9
2023-04-12T14:12:13.962Z,8.9
2023-04-12T14:15:11.000Z,9
2023-04-12T14:18:10.620Z,9.1
2023-04-12T14:21:10.526Z,9.1
2023-04-12T14:24:10.407Z,9.1
2023-04-12T14:27:10.321Z,9.1
2023-04-12T14:30:11.453Z,9.1
2023-04-12T14:33:11.218Z,9.1
2023-04-12T14:36:10.065Z,9.1
2023-04-12T14:39:16.890Z,9.1
2023-04-12T14:42:10.313Z,9.1
2023-04-12T14:45:10.759Z,9.2
2023-04-12T14:48:10.726Z,9.2
2023-04-12T14:51:12.566Z,9.2
2023-04-12T14:54:11.942Z,9.3
2023-04-12T14:57:10.272Z,9.4
2023-04-12T15:00:13.436Z,9.5
2023-04-12T15:03:13.483Z,9.6
2023-04-12T15:06:09.899Z,9.6
2023-04-12T15:09:12.778Z,9.6
2023-04-12T15:12:10.278Z,9.6
2023-04-12T15:15:12.980Z,9.7
2023-04-12T15:18:10.198Z,9.8
2023-04-12T15:21:13.057Z,9.8
2023-04-12T15:24:09.960Z,9.8
2023-04-12T15:27:12.365Z,9.8
2023-04-12T15:30:10.578Z,9.8
2023-04-12T15:33:10.098Z,9.8
2023-04-12T15:36:09.928Z,9.8
2023-04-12T15:39:10.388Z,9.9
2023-04-12T15:42:09.829Z,9.9
2023-04-12T15:45:10.042Z,10
2023-04-12T15:48:10.174Z,10.1
2023-04-12T15:51:09.966Z,10.2
2023-04-12T15:54:10.232Z,10.3
2023-04-12T15:57:10.302Z,10.4
2023-04-12T16:00:09.882Z,10.4
2023-04-12T16:03:11.108Z,10.4
2023-04-12T16:06:09.892Z,10.4
2023-04-12T16:09:10.825Z,10.3
2023-04-12T16:12:09.792Z,10.2
2023-04-12T16:15:10.094Z,10.2
2023-04-12T16:18:10.169Z,10.2
2023-04-12T16:21:09.962Z,10.1
2023-04-12T16:24:09.960Z,10
2023-04-12T16:27:09.799Z,10
2023-04-12T16:30:09.924Z,9.9
2023-04-12T16:33:10.269Z,9.9
2023-04-12T16:36:09.805Z,9.8
2023-04-12T16:39:09.941Z,9.8
2023-04-12T16:42:09.803Z,9.8
2023-04-12T16:45:10.840Z,9.8
2023-04-12T16:48:10.173Z,9.7
2023-04-12T16:51:09.921Z,9.7
2023-04-12T16:54:09.870Z,9.6
2023-04-12T16:57:10.139Z,9.6
2023-04-12T17:00:09.798Z,9.6
2023-04-12T17:03:10.709Z,9.6
2023-04-12T17:06:09.774Z,9.6
2023-04-12T17:09:10.016Z,9.6
2023-04-12T17:12:09.850Z,9.6
2023-04-12T17:15:09.915Z,9.5
2023-04-12T17:18:10.254Z,9.5
2023-04-12T17:21:10.112Z,9.4
2023-04-12T17:24:10.522Z,9.4
2023-04-12T17:27:09.838Z,9.4
2023-04-12T17:30:09.883Z,9.3
2023-04-12T17:33:10.990Z,9.3
2023-04-12T17:36:15.340Z,9.2
2023-04-12T17:39:10.817Z,9.1
2023-04-12T17:42:09.940Z,9.2
2023-04-12T17:45:10.080Z,9.1
2023-04-12T17:48:10.118Z,9.1
2023-04-12T17:51:10.024Z,9.1
2023-04-12T17:54:10.062Z,9.1
2023-04-12T17:57:09.999Z,9.1
2023-04-12T18:00:09.914Z,9.1
2023-04-12T18:03:11.124Z,9.1
2023-04-12T18:06:09.736Z,9.1
2023-04-12T18:09:10.399Z,9.1
2023-04-12T18:12:09.760Z,9
2023-04-12T18:15:09.893Z,9
2023-04-12T18:18:10.000Z,9
2023-04-12T18:21:09.880Z,9
2023-04-12T18:24:09.862Z,8.9
2023-04-12T18:27:09.797Z,8.9
2023-04-12T18:30:09.849Z,8.9
2023-04-12T18:33:13.041Z,8.9
2023-04-12T18:36:09.807Z,8.8
2023-04-12T18:39:09.857Z,8.8
2023-04-12T18:42:09.761Z,8.9
2023-04-12T18:45:09.983Z,8.9
2023-04-12T18:48:10.060Z,8.9
2023-04-12T18:51:10.027Z,8.9
2023-04-12T18:54:10.420Z,8.9
2023-04-12T18:57:09.952Z,8.9
2023-04-12T19:00:09.992Z,8.9
2023-04-12T19:03:10.631Z,8.9
2023-04-12T19:06:09.699Z,8.8
2023-04-12T19:09:09.776Z,8.8
2023-04-12T19:12:09.685Z,8.8
2023-04-12T19:15:10.019Z,8.8
2023-04-12T19:18:10.570Z,8.7
2023-04-12T19:21:10.115Z,8.7
2023-04-12T19:24:10.050Z,8.6
2023-04-12T19:27:09.793Z,8.6
2023-04-12T19:30:09.850Z,8.6
2023-04-12T19:33:10.106Z,8.5
2023-04-12T19:36:09.716Z,8.6
2023-04-12T19:39:09.873Z,8.6
2023-04-12T19:42:09.950Z,8.5
2023-04-12T19:45:09.971Z,8.3
2023-04-12T19:48:10.139Z,8.1
2023-04-12T19:51:09.953Z,7.9
2023-04-12T19:54:09.871Z,7.6
2023-04-12T19:57:09.919Z,7.4
2023-04-12T20:00:09.822Z,7.4
2023-04-12T20:03:10.307Z,7.3
2023-04-12T20:06:09.750Z,7.3
2023-04-12T20:09:10.440Z,7.2
2023-04-12T20:12:09.705Z,7.1
2023-04-12T20:15:09.921Z,6.9
2023-04-12T20:18:09.994Z,6.8
2023-04-12T20:21:09.934Z,6.7
2023-04-12T20:24:09.734Z,6.6
2023-04-12T20:27:09.770Z,6.4
2023-04-12T20:30:09.907Z,6.4
2023-04-12T20:33:10.300Z,6.3
2023-04-12T20:36:09.787Z,6.2
2023-04-12T20:39:10.151Z,6.2
2023-04-12T20:42:09.850Z,6.1
2023-04-12T20:45:09.861Z,5.9
2023-04-12T20:48:10.100Z,5.8
2023-04-12T20:51:09.787Z,5.7
2023-04-12T20:54:09.747Z,5.6
2023-04-12T20:57:09.905Z,5.6
2023-04-12T21:00:10.043Z,5.5
2023-04-12T21:03:11.298Z,5.4
2023-04-12T21:06:09.835Z,5.3
2023-04-12T21:09:09.873Z,5.2
2023-04-12T21:12:09.747Z,5.1
2023-04-12T21:15:09.818Z,5.1
2023-04-12T21:18:10.093Z,5
2023-04-12T21:21:09.904Z,4.9
2023-04-12T21:24:09.698Z,4.9
2023-04-12T21:27:09.857Z,4.8
2023-04-12T21:30:09.868Z,4.7
2023-04-12T21:33:10.142Z,4.8
2023-04-12T21:36:09.761Z,4.8
2023-04-12T21:39:10.440Z,4.7
2023-04-12T21:42:09.751Z,4.8
2023-04-12T21:45:09.945Z,4.8
2023-04-12T21:48:09.924Z,4.7
2023-04-12T21:51:09.852Z,4.7
2023-04-12T21:54:09.705Z,4.7
2023-04-12T21:57:09.817Z,4.7
2023-04-12T22:00:11.163Z,4.7
2023-04-12T22:03:11.093Z,4.7
2023-04-12T22:06:14.188Z,4.7
2023-04-12T22:09:10.597Z,4.7
2023-04-12T22:12:09.882Z,4.6
2023-04-12T22:15:09.982Z,4.5
2023-04-12T22:18:10.021Z,4.3
2023-04-12T22:21:09.835Z,4.1
2023-04-12T22:24:10.330Z,3.9
2023-04-12T22:27:09.682Z,3.7
2023-04-12T22:30:09.814Z,3.6
2023-04-12T22:33:10.247Z,3.6
2023-04-12T22:36:09.711Z,3.3
2023-04-12T22:39:09.810Z,3.1
2023-04-12T22:42:09.719Z,2.9
2023-04-12T22:45:09.920Z,2.8
2023-04-12T22:48:09.952Z,2.9
2023-04-12T22:51:09.974Z,3.1
2023-04-12T22:54:09.713Z,3.3
2023-04-12T22:57:09.852Z,3.5
2023-04-12T23:00:09.742Z,3.6
2023-04-12T23:03:10.860Z,3.7
2023-04-12T23:06:09.722Z,3.8
2023-04-12T23:09:09.790Z,3.9
2023-04-12T23:12:09.758Z,3.9
2023-04-12T23:15:09.808Z,3.9
2023-04-12T23:18:10.083Z,4
2023-04-12T23:21:10.174Z,3.9
2023-04-12T23:24:09.791Z,3.9
2023-04-12T23:27:09.770Z,3.9
2023-04-12T23:30:09.873Z,3.9
2023-04-12T23:33:09.893Z,3.9
2023-04-12T23:36:09.750Z,3.9
2023-04-12T23:39:09.784Z,4.1
2023-04-12T23:42:09.764Z,4.2
2023-04-12T23:45:09.780Z,4.2
2023-04-12T23:48:10.103Z,4.3
2023-04-12T23:51:09.843Z,4.6
2023-04-12T23:54:09.940Z,4.7
2023-04-12T23:57:09.765Z,4.7
